< < Back
Terminal Aerodrome Forecast


Current Version              Previous Versions:   1  2  3  4  5  6  7  8  9  

Terminal Aerodrome Forecast

869
FTUS44 KBMX 270500
TAFMGM
TAF
KMGM 270527Z 2706/2806 26007KT P6SM SKC
     FM271500 31012G20KT P6SM FEW040
     FM272300 32009KT P6SM SKC=



Latest METAR

927
SAUS80 KWBC 262200 RRG
MTRMGM
METAR KMGM 272153Z 32012KT 10SM CLR 11/M02 A3038 RMK AO2 SLP289
T01061022


USA.gov is the U.S. government's official web portal to all federal, state and local government web resources and services.